Impacts TAF Board
For situational awareness. Not to be used for flight planning purposes.
IDs:

KJFK - New York/Kennedy Int, NY, US

Issued at 1530 UTC 20 Nov 2018
Updated at 1533 UTC 20 Nov 2018
Potential Impact None Slight Moderate High
Time<<21/16Z 21/17Z 21/18Z 21/19Z 21/20Z 21/21Z 21/22Z 21/23Z 22/00Z 22/01Z 22/02Z 22/03Z 22/04Z
Type PRVL PRVL
VIS >6 >6
CIG 80 80
Cover BKN BKN
FltCat VFR VFR
WX -- --
WDir 250 250
WSpd 15 15
WGst 23 23
Raw TAF
KJFK 201530Z 2016/2118 32008KT P6SM BKN015
  FM201700 30014KT P6SM BKN030
  FM202000 31014G23KT P6SM SCT040
  FM210200 30014KT P6SM SKC
  FM211000 28010KT P6SM SKC
  FM211500 25015G23KT P6SM BKN080


METAR Board
Radar Display
Forecast Discussion
For situational awareness. Not to be used for flight planning purposes.